createdAt,value
2016-04-02T00:00:17.048Z,63.73
2016-04-02T00:01:15.849Z,63.51
2016-04-02T00:02:16.585Z,63.64
2016-04-02T00:03:16.697Z,63.51
2016-04-02T00:04:16.450Z,63.82
2016-04-02T00:05:15.796Z,63.64
2016-04-02T00:06:16.252Z,63.92
2016-04-02T00:07:15.771Z,63.92
2016-04-02T00:08:15.757Z,63.7
2016-04-02T00:09:15.745Z,63.45
2016-04-02T00:10:15.747Z,63.42
2016-04-02T00:11:15.719Z,63.23
2016-04-02T00:12:15.878Z,63.42
2016-04-02T00:13:15.693Z,63.32
2016-04-02T00:14:15.696Z,63.51
2016-04-02T00:16:15.686Z,63.42
2016-04-02T00:17:15.689Z,63.6
2016-04-02T00:18:15.816Z,63.7
2016-04-02T00:19:15.662Z,63.6
2016-04-02T00:20:15.633Z,63.51
2016-04-02T00:21:15.746Z,63.6
2016-04-02T00:22:15.608Z,63.54
2016-04-02T00:23:15.611Z,63.7
2016-04-02T00:24:15.598Z,63.6
2016-04-02T00:25:15.600Z,63.51
2016-04-02T00:26:15.588Z,63.6
2016-04-02T00:27:15.559Z,63.79
2016-04-02T00:28:15.562Z,63.6
2016-04-02T00:29:15.549Z,63.51
2016-04-02T00:30:15.535Z,63.42
2016-04-02T00:31:15.538Z,63.7
2016-04-02T00:32:15.525Z,63.6
2016-04-02T00:33:15.527Z,63.42
2016-04-02T00:34:15.499Z,63.42
2016-04-02T00:35:15.491Z,63.89
2016-04-02T00:36:15.479Z,63.98
2016-04-02T00:37:15.481Z,63.42
2016-04-02T00:38:15.453Z,64.07
2016-04-02T00:39:15.471Z,63.79
2016-04-02T00:40:15.442Z,63.89
2016-04-02T00:41:15.446Z,64.36
2016-04-02T00:42:15.448Z,64.64
2016-04-02T00:43:15.419Z,64.45
2016-04-02T00:44:15.391Z,64.45
2016-04-02T00:45:15.393Z,64.26
2016-04-02T00:46:15.412Z,64.26
2016-04-02T00:47:15.383Z,64.55
2016-04-02T00:48:15.355Z,64.55
2016-04-02T00:49:15.342Z,64.45
2016-04-02T00:50:15.344Z,64.45
2016-04-02T00:51:15.331Z,64.45
2016-04-02T00:52:15.319Z,64.83
2016-04-02T00:53:15.305Z,65.02
2016-04-02T00:54:15.308Z,64.93
2016-04-02T00:55:15.311Z,64.83
2016-04-02T00:56:15.282Z,64.55
2016-04-02T00:57:15.285Z,64.55
2016-04-02T00:58:15.256Z,65.21
2016-04-02T00:59:14.525Z,65.02
2016-04-02T01:00:15.230Z,65.21
2016-04-02T01:01:15.233Z,65.02
2016-04-02T01:02:15.236Z,65.21
2016-04-02T01:03:15.207Z,65.12
2016-04-02T01:04:15.194Z,65.4
2016-04-02T01:05:15.182Z,65.21
2016-04-02T01:06:15.185Z,65.31
2016-04-02T01:07:15.171Z,65.02
2016-04-02T01:08:15.173Z,65.31
2016-04-02T01:09:15.162Z,65.12
2016-04-02T01:10:15.149Z,65.31
2016-04-02T01:11:15.120Z,65.5
2016-04-02T01:12:16.310Z,66.06
2016-04-02T01:13:15.093Z,65.5
2016-04-02T01:14:15.112Z,66.06
2016-04-02T01:15:15.083Z,66.06
2016-04-02T01:16:15.087Z,65.59
2016-04-02T01:17:15.058Z,66.06
2016-04-02T01:18:15.075Z,65.97
2016-04-02T01:19:15.344Z,65.97
2016-04-02T01:20:15.878Z,66.06
2016-04-02T01:21:15.037Z,66.35
2016-04-02T01:22:15.150Z,66.44
2016-04-02T01:23:14.996Z,66.53
2016-04-02T01:24:15.608Z,66.73
2016-04-02T01:26:15.332Z,66.63
2016-04-02T01:27:15.553Z,66.53
2016-04-02T01:28:15.150Z,66.35
2016-04-02T01:29:14.950Z,66.44
2016-04-02T01:30:14.921Z,66.44
2016-04-02T01:31:14.924Z,66.44
2016-04-02T01:32:15.145Z,66.44
2016-04-02T01:33:14.913Z,66.73
2016-04-02T01:34:15.338Z,66.92
2016-04-02T01:35:15.278Z,66.63
2016-04-02T01:36:14.859Z,67.01
2016-04-02T01:37:29.393Z,67.01
2016-04-02T01:38:14.849Z,66.69
2016-04-02T01:39:14.835Z,66.79
2016-04-02T01:40:14.838Z,66.98
2016-04-02T01:41:14.810Z,67.26
2016-04-02T01:42:14.859Z,67.36
2016-04-02T01:43:14.799Z,67.55
2016-04-02T01:44:14.771Z,67.45
2016-04-02T01:45:14.773Z,67.26
2016-04-02T01:46:14.761Z,67.26
2016-04-02T01:47:14.764Z,67.17
2016-04-02T01:48:14.734Z,67.26
2016-04-02T01:49:14.737Z,67.45
2016-04-02T01:50:14.724Z,67.93
2016-04-02T01:51:14.711Z,68.02
2016-04-02T01:52:14.698Z,68.02
2016-04-02T01:53:14.530Z,67.74
2016-04-02T01:54:14.672Z,67.64
2016-04-02T01:55:14.675Z,68.4
2016-04-02T01:56:14.640Z,68.21
2016-04-02T01:57:14.615Z,68.02
2016-04-02T01:58:14.622Z,68.12
2016-04-02T01:59:14.582Z,68.02
2016-04-02T02:00:14.573Z,68.02
2016-04-02T02:01:14.537Z,68.49
2016-04-02T02:02:14.535Z,68.21
2016-04-02T02:03:14.503Z,68.3
2016-04-02T02:04:14.501Z,68.49
2016-04-02T02:05:14.485Z,68.21
2016-04-02T02:06:14.469Z,68.77
2016-04-02T02:07:14.454Z,68.3
2016-04-02T02:08:14.449Z,68.59
2016-04-02T02:09:14.419Z,69.15
2016-04-02T02:10:14.420Z,68.87
2016-04-02T02:11:14.407Z,69.06
2016-04-02T02:12:14.394Z,68.87
2016-04-02T02:13:14.380Z,68.96
2016-04-02T02:14:14.367Z,68.96
2016-04-02T02:15:14.362Z,69.06
2016-04-02T02:16:14.365Z,69.15
2016-04-02T02:17:14.351Z,69.53
2016-04-02T02:18:14.338Z,69.25
2016-04-02T02:19:14.308Z,69.34
2016-04-02T02:20:14.326Z,69.25
2016-04-02T02:21:14.298Z,69.63
2016-04-02T02:22:14.300Z,69.53
2016-04-02T02:23:14.272Z,69.72
2016-04-02T02:24:14.259Z,69.72
2016-04-02T02:25:14.245Z,69.72
2016-04-02T02:26:14.233Z,69.34
2016-04-02T02:27:14.237Z,69.63
2016-04-02T02:28:14.223Z,69.72
2016-04-02T02:29:14.210Z,69.72
2016-04-02T02:30:14.197Z,70.1
2016-04-02T02:31:15.278Z,70.1
2016-04-02T02:32:14.187Z,70.1
2016-04-02T02:33:14.175Z,70.01
2016-04-02T02:34:14.162Z,70.1
2016-04-02T02:35:14.445Z,70.48
2016-04-02T02:36:14.136Z,70.29
2016-04-02T02:37:14.123Z,70.57
2016-04-02T02:38:14.781Z,70.57
2016-04-02T02:40:14.083Z,70.76
2016-04-02T02:41:14.072Z,70.76
2016-04-02T02:42:14.886Z,70.95
2016-04-02T02:43:14.061Z,70.86
2016-04-02T02:44:14.158Z,71.33
2016-04-02T02:46:28.303Z,71.23
2016-04-02T02:47:14.853Z,71.71
2016-04-02T02:48:14.011Z,71.9
2016-04-02T02:49:14.483Z,71.9
2016-04-02T02:50:13.985Z,71.8
2016-04-02T02:51:13.973Z,72.28
2016-04-02T02:52:13.944Z,72.28
2016-04-02T02:53:14.946Z,72.94
2016-04-02T02:54:14.684Z,72.66
2016-04-02T02:55:14.124Z,72.94
2016-04-02T02:57:13.908Z,73.32
2016-04-02T02:58:13.896Z,73.03
2016-04-02T02:59:14.210Z,73.03
2016-04-02T03:00:13.870Z,72.94
2016-04-02T03:01:13.872Z,72.75
2016-04-02T03:02:13.843Z,72.94
2016-04-02T03:03:13.846Z,72.94
2016-04-02T03:04:13.817Z,73.03
2016-04-02T03:05:13.805Z,73.13
2016-04-02T03:06:13.792Z,73.41
2016-04-02T03:07:13.795Z,73.41
2016-04-02T03:08:13.782Z,73.32
2016-04-02T03:09:13.770Z,73.41
2016-04-02T03:10:13.756Z,73.32
2016-04-02T03:11:13.759Z,72.94
2016-04-02T03:12:13.745Z,73.69
2016-04-02T03:13:13.733Z,73.88
2016-04-02T03:14:13.720Z,73.98
2016-04-02T03:15:13.691Z,74.04
2016-04-02T03:16:13.694Z,73.69
2016-04-02T03:17:13.665Z,73.85
2016-04-02T03:18:13.668Z,74.07
2016-04-02T03:19:13.671Z,74.17
2016-04-02T03:20:13.658Z,73.79
2016-04-02T03:21:13.630Z,74.55
2016-04-02T03:22:13.632Z,74.07
2016-04-02T03:23:13.619Z,74.07
2016-04-02T03:24:13.605Z,74.26
2016-04-02T03:25:13.593Z,74.74
2016-04-02T03:26:13.580Z,74.36
2016-04-02T03:27:13.567Z,74.55
2016-04-02T03:28:13.554Z,74.36
2016-04-02T03:29:13.557Z,74.36
2016-04-02T03:30:13.529Z,74.17
2016-04-02T03:31:13.516Z,74.74
2016-04-02T03:32:13.502Z,74.83
2016-04-02T03:33:13.490Z,74.79
2016-04-02T03:34:13.492Z,74.69
2016-04-02T03:35:13.495Z,74.45
2016-04-02T03:36:13.467Z,75.02
2016-04-02T03:37:13.454Z,75.12
2016-04-02T03:38:13.456Z,74.79
2016-04-02T03:39:13.428Z,75.26
2016-04-02T03:40:13.430Z,75.12
2016-04-02T03:41:13.417Z,75.07
2016-04-02T03:42:13.404Z,75.45
2016-04-02T03:43:13.392Z,75.4
2016-04-02T03:44:13.379Z,75.45
2016-04-02T03:45:13.366Z,75.45
2016-04-02T03:46:13.369Z,75.36
2016-04-02T03:47:13.340Z,75.36
2016-04-02T03:48:13.436Z,75.36
2016-04-02T03:49:13.330Z,75.45
2016-04-02T03:50:14.535Z,75.83
2016-04-02T03:51:13.288Z,76.02
2016-04-02T03:52:13.290Z,75.93
2016-04-02T03:53:13.277Z,75.93
2016-04-02T03:54:13.265Z,76.02
2016-04-02T03:55:13.251Z,75.83
2016-04-02T03:56:13.254Z,75.93
2016-04-02T03:57:14.351Z,75.93
2016-04-02T03:58:13.229Z,76.4
2016-04-02T03:59:13.200Z,76.12
2016-04-02T04:00:13.202Z,76.02
2016-04-02T04:01:13.190Z,76.02
2016-04-02T04:02:13.176Z,75.93
2016-04-02T04:03:13.664Z,76.5
2016-04-02T04:04:27.826Z,76.97
2016-04-02T04:05:13.138Z,76.78
2016-04-02T04:06:13.829Z,76.87
2016-04-02T04:07:13.222Z,76.68
2016-04-02T04:08:13.349Z,76.68
2016-04-02T04:09:13.196Z,76.5
2016-04-02T04:10:13.184Z,76.59
2016-04-02T04:11:13.061Z,76.87
2016-04-02T04:12:13.970Z,77.06
2016-04-02T04:13:27.225Z,77.25
2016-04-02T04:14:13.740Z,77.44
2016-04-02T04:15:13.025Z,77.44
2016-04-02T04:16:13.011Z,77.34
2016-04-02T04:17:12.998Z,77.72
2016-04-02T04:18:12.985Z,77.53
2016-04-02T04:19:12.972Z,77.63
2016-04-02T04:20:12.975Z,77.44
2016-04-02T04:21:12.947Z,77.82
2016-04-02T04:22:12.934Z,77.72
2016-04-02T04:23:12.921Z,77.72
2016-04-02T04:24:12.924Z,77.63
2016-04-02T04:25:12.911Z,77.63
2016-04-02T04:26:12.897Z,77.53
2016-04-02T04:27:12.900Z,78.39
2016-04-02T04:28:12.871Z,78.1
2016-04-02T04:29:12.874Z,78.01
2016-04-02T04:30:12.861Z,78.1
2016-04-02T04:31:12.848Z,78.23
2016-04-02T04:32:12.835Z,78.29
2016-04-02T04:33:12.823Z,78.1
2016-04-02T04:34:12.809Z,78.14
2016-04-02T04:35:12.829Z,78.01
2016-04-02T04:36:12.784Z,78.29
2016-04-02T04:37:12.787Z,78.1
2016-04-02T04:38:12.774Z,77.91
2016-04-02T04:39:12.761Z,77.91
2016-04-02T04:40:12.748Z,78.1
2016-04-02T04:41:12.734Z,78.52
2016-04-02T04:42:12.722Z,78.71
2016-04-02T04:43:12.709Z,78.9
2016-04-02T04:44:12.696Z,78.61
2016-04-02T04:45:12.684Z,78.42
2016-04-02T04:46:12.686Z,78.52
2016-04-02T04:47:12.658Z,78.71
2016-04-02T04:48:12.645Z,78.71
2016-04-02T04:49:12.631Z,78.71
2016-04-02T04:50:12.634Z,78.9
2016-04-02T04:51:12.621Z,78.99
2016-04-02T04:52:12.608Z,78.99
2016-04-02T04:53:12.611Z,78.9
2016-04-02T04:54:12.582Z,78.9
2016-04-02T04:55:12.585Z,78.8
2016-04-02T04:56:12.557Z,78.9
2016-04-02T04:57:12.543Z,78.9
2016-04-02T04:58:12.547Z,78.9
2016-04-02T04:59:12.549Z,79.18
2016-04-02T05:00:12.521Z,79.28
2016-04-02T05:01:12.508Z,79.37
2016-04-02T05:02:12.510Z,79.28
2016-04-02T05:03:12.482Z,78.99
2016-04-02T05:04:12.515Z,79.28
2016-04-02T05:05:12.471Z,79.32
2016-04-02T05:06:12.459Z,79.03
2016-04-02T05:07:12.554Z,79.32
2016-04-02T05:08:12.432Z,79.32
2016-04-02T05:09:13.794Z,79.41
2016-04-02T05:10:12.406Z,78.65
2016-04-02T05:11:12.393Z,78.98
2016-04-02T05:12:12.395Z,78.59
2016-04-02T05:13:12.368Z,78.13
2016-04-02T05:14:12.386Z,78.22
2016-04-02T05:15:12.373Z,77.75
2016-04-02T05:16:13.189Z,78.07
2016-04-02T05:18:12.334Z,76.74
2016-04-02T05:19:12.321Z,76.93
2016-04-02T05:20:13.308Z,76.55
2016-04-02T05:21:12.311Z,76.17
2016-04-02T05:23:12.380Z,75.89
2016-04-02T05:24:12.398Z,75.51
2016-04-02T05:25:12.275Z,75.32
2016-04-02T05:26:12.669Z,74.79
2016-04-02T05:27:12.249Z,74.41
2016-04-02T05:28:12.252Z,74.69
2016-04-02T05:29:12.255Z,74.51
2016-04-02T05:30:12.226Z,74.13
2016-04-02T05:31:12.572Z,73.84
2016-04-02T05:32:12.309Z,73.65
2016-04-02T05:33:11.484Z,73.46
2016-04-02T05:34:12.768Z,73.27
2016-04-02T05:35:12.551Z,72.99
2016-04-02T05:36:12.195Z,73.12
2016-04-02T05:37:12.182Z,72.74
2016-04-02T05:38:12.185Z,72.36
2016-04-02T05:39:12.173Z,72.08
2016-04-02T05:40:12.175Z,72.17
2016-04-02T05:41:12.146Z,71.7
2016-04-02T05:42:12.148Z,71.26
2016-04-02T05:43:12.151Z,71.07
2016-04-02T05:44:12.139Z,70.88
2016-04-02T05:45:11.391Z,70.12
2016-04-02T05:46:12.112Z,70.03
2016-04-02T05:47:12.114Z,69.65
2016-04-02T05:48:12.102Z,69.55
2016-04-02T05:49:12.152Z,69.46
2016-04-02T05:50:12.092Z,68.79
2016-04-02T05:51:12.080Z,69.08
2016-04-02T05:52:12.098Z,68.89
2016-04-02T05:53:12.069Z,68.54
2016-04-02T05:54:12.072Z,68.44
2016-04-02T05:55:12.091Z,68.26
2016-04-02T05:56:12.061Z,67.69
2016-04-02T05:57:12.049Z,67.4
2016-04-02T05:58:12.051Z,67.21
2016-04-02T05:59:12.038Z,67.34
2016-04-02T06:00:12.041Z,67.06
2016-04-02T06:01:12.028Z,66.58
2016-04-02T06:02:12.016Z,66.58
2016-04-02T06:03:12.002Z,66.3
2016-04-02T06:04:12.068Z,65.54
2016-04-02T06:05:12.008Z,65.25
2016-04-02T06:06:12.010Z,65.28
2016-04-02T06:07:11.998Z,64.81
2016-04-02T06:08:12.015Z,64.43
2016-04-02T06:09:11.987Z,63.79
2016-04-02T06:10:12.006Z,63.23
2016-04-02T06:11:11.992Z,63.13
2016-04-02T06:12:11.995Z,62.65
2016-04-02T06:13:11.966Z,62.59
2016-04-02T06:14:11.969Z,62.12
2016-04-02T06:15:11.972Z,61.74
2016-04-02T06:16:11.990Z,61.07
2016-04-02T06:17:11.978Z,60.63
2016-04-02T06:18:11.965Z,59.96
2016-04-02T06:19:11.967Z,59.58
2016-04-02T06:20:11.970Z,59.29
2016-04-02T06:21:11.956Z,59.58
2016-04-02T06:22:11.959Z,58.62
2016-04-02T06:23:11.947Z,58.62
2016-04-02T06:24:11.980Z,58.28
2016-04-02T06:25:11.967Z,57.99
2016-04-02T06:26:12.298Z,57.99
2016-04-02T06:27:12.160Z,57.13
2016-04-02T06:28:11.944Z,56.46
2016-04-02T06:29:11.962Z,56.65
2016-04-02T06:30:12.246Z,55.99
2016-04-02T06:31:11.937Z,55.96
2016-04-02T06:32:11.939Z,55.96
2016-04-02T06:33:11.943Z,55.87
2016-04-02T06:34:12.007Z,55.87
2016-04-02T06:36:11.950Z,55.58
2016-04-02T06:37:12.593Z,55.68
2016-04-02T06:38:12.346Z,55.39
2016-04-02T06:39:11.927Z,55.51
2016-04-02T06:40:12.368Z,55.42
2016-04-02T06:41:12.543Z,55.04
2016-04-02T06:42:12.263Z,54.88
2016-04-02T06:43:26.473Z,54.49
2016-04-02T06:44:12.129Z,54.3
2016-04-02T06:45:11.912Z,54.14
2016-04-02T06:46:11.915Z,53.47
2016-04-02T06:47:11.917Z,53.47
2016-04-02T06:48:11.920Z,52.8
2016-04-02T06:49:11.970Z,52.61
2016-04-02T06:50:13.128Z,52.73
2016-04-02T06:51:13.100Z,51.88
2016-04-02T06:52:12.071Z,51.68
2016-04-02T06:53:13.027Z,51.88
2016-04-02T06:54:11.920Z,51.5
2016-04-02T06:55:11.923Z,51.21
2016-04-02T06:56:11.942Z,51.12
2016-04-02T06:57:12.272Z,50.54
2016-04-02T06:58:11.916Z,50.63
2016-04-02T06:59:11.918Z,50.18
2016-04-02T07:00:11.936Z,50.28
2016-04-02T07:01:11.924Z,50.28
2016-04-02T07:02:11.926Z,49.9
2016-04-02T07:03:11.929Z,49.8
2016-04-02T07:04:11.946Z,49.42
2016-04-02T07:05:11.934Z,49.23
2016-04-02T07:06:11.937Z,49.33
2016-04-02T07:07:11.924Z,49.23
2016-04-02T07:08:11.926Z,49.04
2016-04-02T07:09:11.930Z,48.75
2016-04-02T07:10:11.932Z,48.75
2016-04-02T07:11:11.935Z,48.97
2016-04-02T07:12:11.923Z,47.92
2016-04-02T07:13:11.940Z,47.82
2016-04-02T07:14:11.943Z,47.44
2016-04-02T07:15:11.946Z,47.34
2016-04-02T07:16:11.948Z,47.16
2016-04-02T07:17:11.951Z,46.97
2016-04-02T07:18:11.954Z,47.25
2016-04-02T07:19:12.019Z,45.94
2016-04-02T07:20:11.959Z,46.01
2016-04-02T07:21:11.947Z,46.2
2016-04-02T07:22:11.949Z,46.2
2016-04-02T07:23:11.952Z,45.65
2016-04-02T07:24:11.955Z,45.08
2016-04-02T07:25:11.957Z,44.7
2016-04-02T07:26:11.960Z,44.41
2016-04-02T07:27:11.962Z,43.74
2016-04-02T07:28:11.965Z,43.65
2016-04-02T07:29:11.968Z,43.65
2016-04-02T07:30:11.986Z,43.76
2016-04-02T07:31:11.989Z,43.48
2016-04-02T07:32:11.976Z,43.38
2016-04-02T07:33:11.979Z,43.19
2016-04-02T07:34:12.043Z,42.64
2016-04-02T07:35:11.999Z,42.43
2016-04-02T07:36:11.987Z,42.44
2016-04-02T07:37:12.005Z,42.54
2016-04-02T07:38:12.023Z,41.97
2016-04-02T07:39:12.026Z,41.58
2016-04-02T07:40:12.043Z,41.01
2016-04-02T07:41:12.031Z,40.82
2016-04-02T07:42:12.034Z,41.11
2016-04-02T07:43:12.037Z,40.75
2016-04-02T07:45:12.057Z,39.98
2016-04-02T07:46:12.060Z,39.6
2016-04-02T07:47:12.578Z,39.6
2016-04-02T07:48:12.065Z,39.69
2016-04-02T07:49:12.162Z,38.74
2016-04-02T07:50:12.336Z,38.93
2016-04-02T07:51:12.106Z,38.45
2016-04-02T07:52:12.092Z,38.74
2016-04-02T07:53:12.158Z,39.03
2016-04-02T07:54:13.317Z,38.66
2016-04-02T07:55:12.131Z,38.09
2016-04-02T07:56:12.291Z,37.7
2016-04-02T07:57:12.136Z,37.24
2016-04-02T07:58:12.155Z,36.65
2016-04-02T07:59:12.173Z,36.08
2016-04-02T08:00:12.551Z,35.88
2016-04-02T08:01:12.929Z,35.58
2016-04-02T08:02:12.978Z,35.96
2016-04-02T08:03:12.294Z,35.77
2016-04-02T08:04:12.250Z,35.39
2016-04-02T08:05:12.205Z,35.39
2016-04-02T08:06:12.208Z,35.1
2016-04-02T08:07:12.304Z,35.39
2016-04-02T08:08:12.229Z,35.86
2016-04-02T08:09:12.621Z,35.49
2016-04-02T08:10:12.546Z,35.58
2016-04-02T08:11:12.252Z,35.2
2016-04-02T08:12:12.254Z,35.39
2016-04-02T08:13:12.414Z,35
2016-04-02T08:14:12.276Z,34.43
2016-04-02T08:15:12.279Z,34.32
2016-04-02T08:16:12.298Z,34.13
2016-04-02T08:17:12.284Z,34.32
2016-04-02T08:18:12.303Z,34.51
2016-04-02T08:19:12.352Z,34.2
2016-04-02T08:20:12.308Z,34.59
2016-04-02T08:21:12.311Z,35.26
2016-04-02T08:22:12.345Z,35.55
2016-04-02T08:23:12.332Z,35.82
2016-04-02T08:24:12.334Z,36.19
2016-04-02T08:25:12.322Z,36.1
2016-04-02T08:26:12.355Z,36.77
2016-04-02T08:27:12.358Z,36.87
2016-04-02T08:28:12.344Z,36.94
2016-04-02T08:29:12.363Z,36.75
2016-04-02T08:30:12.366Z,36.56
2016-04-02T08:31:12.353Z,36.75
2016-04-02T08:32:12.372Z,36.85
2016-04-02T08:33:12.374Z,36.85
2016-04-02T08:34:12.424Z,36.18
2016-04-02T08:35:12.379Z,36.07
2016-04-02T08:36:12.366Z,36.83
2016-04-02T08:37:12.368Z,36.64
2016-04-02T08:38:12.371Z,36.44
2016-04-02T08:39:12.374Z,36.73
2016-04-02T08:40:12.377Z,35.39
2016-04-02T08:41:12.364Z,34.81
2016-04-02T08:42:12.368Z,34.33
2016-04-02T08:43:12.370Z,34.33
2016-04-02T08:44:12.373Z,34.71
2016-04-02T08:45:12.375Z,34.14
2016-04-02T08:46:12.378Z,34.33
2016-04-02T08:47:12.365Z,34.33
2016-04-02T08:48:12.384Z,34.33
2016-04-02T08:49:12.448Z,34.69
2016-04-02T08:50:12.373Z,34.5
2016-04-02T08:51:12.391Z,34.31
2016-04-02T08:52:12.378Z,33.74
2016-04-02T08:53:12.365Z,33.64
2016-04-02T08:54:12.383Z,33.93
2016-04-02T08:55:12.370Z,34.03
2016-04-02T08:56:12.373Z,34.6
2016-04-02T08:57:12.376Z,34.41
2016-04-02T08:58:12.364Z,34.03
2016-04-02T08:59:12.366Z,33.93
2016-04-02T09:00:12.353Z,34.14
2016-04-02T09:01:12.371Z,33.85
2016-04-02T09:02:12.343Z,34.23
2016-04-02T09:03:13.141Z,34.22
2016-04-02T09:05:13.663Z,33.37
2016-04-02T09:06:12.354Z,32.9
2016-04-02T09:07:12.527Z,32.52
2016-04-02T09:08:12.359Z,31.76
2016-04-02T09:09:12.329Z,31.09
2016-04-02T09:10:12.348Z,31.56
2016-04-02T09:11:12.523Z,32.14
2016-04-02T09:12:12.323Z,31.76
2016-04-02T09:13:13.498Z,31.37
2016-04-02T09:14:12.328Z,31.56
2016-04-02T09:15:12.331Z,31.85
2016-04-02T09:16:12.334Z,31.66
2016-04-02T09:17:12.571Z,31.95
2016-04-02T09:18:12.324Z,30.9
2016-04-02T09:19:12.357Z,30.42
2016-04-02T09:20:12.626Z,30.42
2016-04-02T09:21:12.472Z,30.04
2016-04-02T09:22:12.303Z,30.42
2016-04-02T09:23:12.399Z,30.61
2016-04-02T09:24:12.308Z,30.52
2016-04-02T09:25:12.608Z,30.32
2016-04-02T09:26:12.314Z,30.61
2016-04-02T09:27:12.286Z,30.42
2016-04-02T09:28:12.288Z,30.32
2016-04-02T09:29:13.259Z,30.13
2016-04-02T09:30:12.386Z,30.23
2016-04-02T09:31:12.280Z,29.94
2016-04-02T09:32:13.344Z,29.94
2016-04-02T09:33:12.535Z,29.94
2016-04-02T09:34:12.350Z,30.04
2016-04-02T09:35:12.291Z,29.94
2016-04-02T09:36:12.278Z,29.94
2016-04-02T09:37:12.265Z,30.42
2016-04-02T09:38:12.268Z,30.13
2016-04-02T09:39:12.254Z,30.13
2016-04-02T09:40:12.258Z,30.42
2016-04-02T09:41:12.276Z,30.52
2016-04-02T09:42:12.263Z,30.61
2016-04-02T09:43:12.249Z,30.52
2016-04-02T09:44:12.268Z,30.15
2016-04-02T09:45:12.255Z,30.04
2016-04-02T09:46:12.257Z,30.13
2016-04-02T09:47:12.245Z,30.34
2016-04-02T09:48:12.231Z,30.43
2016-04-02T09:49:12.298Z,30.72
2016-04-02T09:50:12.237Z,30.72
2016-04-02T09:51:12.240Z,30.43
2016-04-02T09:52:12.227Z,30.43
2016-04-02T09:53:12.245Z,29.86
2016-04-02T09:54:12.248Z,29.86
2016-04-02T09:55:12.235Z,29.77
2016-04-02T09:56:12.238Z,29.58
2016-04-02T09:57:12.225Z,29.86
2016-04-02T09:58:12.228Z,30.05
2016-04-02T09:59:12.215Z,29.58
2016-04-02T10:00:12.217Z,28.14
2016-04-02T10:01:12.220Z,26.24
2016-04-02T10:02:12.207Z,25.47
2016-04-02T10:03:12.210Z,25.09
2016-04-02T10:04:12.228Z,25.39
2016-04-02T10:05:12.200Z,25.67
2016-04-02T10:06:12.203Z,24.43
2016-04-02T10:07:12.205Z,24.15
2016-04-02T10:08:12.208Z,23.86
2016-04-02T10:09:12.194Z,23.48
2016-04-02T10:10:12.182Z,23.38
2016-04-02T10:11:12.199Z,23
2016-04-02T10:12:12.171Z,22.43
2016-04-02T10:13:12.174Z,22.43
2016-04-02T10:14:12.177Z,22.33
2016-04-02T10:15:12.196Z,22.24
2016-04-02T10:16:12.198Z,22.53
2016-04-02T10:17:12.170Z,23
2016-04-02T10:18:12.203Z,23.1
2016-04-02T10:19:12.331Z,23.58
2016-04-02T10:20:12.177Z,23.19
2016-04-02T10:21:12.180Z,23
2016-04-02T10:23:12.951Z,22.72
2016-04-02T10:24:13.439Z,22.63
2016-04-02T10:25:12.175Z,21.77
2016-04-02T10:26:12.475Z,21.38
2016-04-02T10:27:12.227Z,21.2
2016-04-02T10:28:12.167Z,21.57
2016-04-02T10:29:12.217Z,21.68
2016-04-02T10:30:12.158Z,21.39
2016-04-02T10:31:12.161Z,21.3
2016-04-02T10:32:13.616Z,21.11
2016-04-02T10:33:12.150Z,21.87
2016-04-02T10:34:12.168Z,21.87
2016-04-02T10:35:12.139Z,21.68
2016-04-02T10:36:12.641Z,21.68
2016-04-02T10:37:12.691Z,22.06
2016-04-02T10:39:12.338Z,22.44
2016-04-02T10:40:12.138Z,21.3
2016-04-02T10:41:12.124Z,21.11
2016-04-02T10:42:12.127Z,20.53
2016-04-02T10:43:12.396Z,20.92
2016-04-02T10:44:12.117Z,21.01
2016-04-02T10:45:12.120Z,20.72
2016-04-02T10:46:12.137Z,20.72
2016-04-02T10:48:12.628Z,21.01
2016-04-02T10:49:12.349Z,20.72
2016-04-02T10:50:26.307Z,20.15
2016-04-02T10:51:12.620Z,19.96
2016-04-02T10:52:12.107Z,20.06
2016-04-02T10:53:12.125Z,20.25
2016-04-02T10:54:12.113Z,20.06
2016-04-02T10:55:12.115Z,19.86
2016-04-02T10:56:12.118Z,19.96
2016-04-02T10:57:12.121Z,19.29
2016-04-02T10:58:12.108Z,19.38
2016-04-02T10:59:12.111Z,19.01
2016-04-02T11:00:12.097Z,18.52
2016-04-02T11:01:12.100Z,18.91
2016-04-02T11:02:12.118Z,19.01
2016-04-02T11:03:12.095Z,19.01
2016-04-02T11:04:12.133Z,19.11
2016-04-02T11:05:12.078Z,19.3
2016-04-02T11:06:12.039Z,19.1
2016-04-02T11:07:12.061Z,18.63
2016-04-02T11:08:12.028Z,19.01
2016-04-02T11:09:12.027Z,18.73
2016-04-02T11:10:12.025Z,19.01
2016-04-02T11:11:12.007Z,18.91
2016-04-02T11:12:12.006Z,18.54
2016-04-02T11:13:11.992Z,18.35
2016-04-02T11:14:12.008Z,18.44
2016-04-02T11:15:11.994Z,18.73
2016-04-02T11:16:12.010Z,18.35
2016-04-02T11:17:11.996Z,17.86
2016-04-02T11:18:11.983Z,17.49
2016-04-02T11:19:11.877Z,17.96
2016-04-02T11:20:12.004Z,17.77
2016-04-02T11:21:11.990Z,18.73
2016-04-02T11:22:11.976Z,18.63
2016-04-02T11:23:11.995Z,18.54
2016-04-02T11:24:11.982Z,18.63
2016-04-02T11:25:11.985Z,18.73
2016-04-02T11:26:11.973Z,18.44
2016-04-02T11:27:11.990Z,18.54
2016-04-02T11:28:11.978Z,18.82
2016-04-02T11:29:11.995Z,18.45
2016-04-02T11:30:11.967Z,18.45
2016-04-02T11:31:12.001Z,18.74
2016-04-02T11:32:11.972Z,18.45
2016-04-02T11:33:11.959Z,18.74
2016-04-02T11:34:12.009Z,18.06
2016-04-02T11:35:11.965Z,18.07
2016-04-02T11:36:11.968Z,18.54
2016-04-02T11:37:11.955Z,18.35
2016-04-02T11:38:11.958Z,18.93
2016-04-02T11:39:11.960Z,18.54
2016-04-02T11:40:11.947Z,18.35
2016-04-02T11:41:11.980Z,17.97
2016-04-02T11:42:11.968Z,17.88
2016-04-02T11:43:13.330Z,17.88
2016-04-02T11:44:11.973Z,17.88
2016-04-02T11:45:11.946Z,17.97
2016-04-02T11:46:11.948Z,17.88
2016-04-02T11:47:12.310Z,18.16
2016-04-02T11:48:11.953Z,17.97
2016-04-02T11:49:11.987Z,17.59
2016-04-02T11:50:11.974Z,17.49
2016-04-02T11:51:13.743Z,17.21
2016-04-02T11:52:11.965Z,17.11
2016-04-02T11:53:11.951Z,17.4
2016-04-02T11:54:11.970Z,17.4
2016-04-02T11:55:11.956Z,16.92
2016-04-02T11:56:12.428Z,16.82
2016-04-02T11:57:12.945Z,17.21
2016-04-02T11:59:12.686Z,16.26
2016-04-02T12:00:11.985Z,16.55
2016-04-02T12:01:11.957Z,15.49
2016-04-02T12:02:11.944Z,16.06
2016-04-02T12:03:12.228Z,16.16
2016-04-02T12:04:11.996Z,16.16
2016-04-02T12:05:11.936Z,16.35
2016-04-02T12:06:12.127Z,16.16
2016-04-02T12:07:12.019Z,15.88
2016-04-02T12:09:11.930Z,16.16
2016-04-02T12:10:11.918Z,15.78
2016-04-02T12:11:11.921Z,15.59
2016-04-02T12:12:11.939Z,16.06
2016-04-02T12:13:11.927Z,15.4
2016-04-02T12:14:11.929Z,15.4
2016-04-02T12:15:11.932Z,15.4
2016-04-02T12:16:11.919Z,15.01
2016-04-02T12:17:11.921Z,15.11
2016-04-02T12:18:11.925Z,15.01
2016-04-02T12:19:11.958Z,15.11
2016-04-02T12:20:11.930Z,14.73
2016-04-02T12:21:11.917Z,15.01
2016-04-02T12:22:11.920Z,13.96
2016-04-02T12:23:11.923Z,13.58
2016-04-02T12:24:11.925Z,13.2
2016-04-02T12:25:11.928Z,13.29
2016-04-02T12:26:11.914Z,13.29
2016-04-02T12:27:11.902Z,13.96
2016-04-02T12:28:11.920Z,13.87
2016-04-02T12:29:11.907Z,13.96
2016-04-02T12:30:11.942Z,13.77
2016-04-02T12:31:11.912Z,13.48
2016-04-02T12:32:11.915Z,13.39
2016-04-02T12:33:11.933Z,13.01
2016-04-02T12:34:11.952Z,12.43
2016-04-02T12:35:11.922Z,12.82
2016-04-02T12:36:11.910Z,13.1
2016-04-02T12:37:11.913Z,13.01
2016-04-02T12:38:11.900Z,13.01
2016-04-02T12:39:11.903Z,13.1
2016-04-02T12:40:11.921Z,13.01
2016-04-02T12:41:11.908Z,12.92
2016-04-02T12:42:11.894Z,12.43
2016-04-02T12:43:11.898Z,13.1
2016-04-02T12:44:11.900Z,14.15
2016-04-02T12:45:11.903Z,14.25
2016-04-02T12:46:11.891Z,13.87
2016-04-02T12:47:11.893Z,14.06
2016-04-02T12:48:11.896Z,13.97
2016-04-02T12:49:11.930Z,13.68
2016-04-02T12:50:11.901Z,13.59
2016-04-02T12:51:11.904Z,13.49
2016-04-02T12:52:11.906Z,13.68
2016-04-02T12:53:11.925Z,13.97
2016-04-02T12:54:11.881Z,13.87
2016-04-02T12:55:11.899Z,13.87
2016-04-02T12:56:11.887Z,13.68
2016-04-02T12:57:11.889Z,13.2
2016-04-02T12:58:11.892Z,13.3
2016-04-02T12:59:11.894Z,13.01
2016-04-02T13:00:11.975Z,13.59
2016-04-02T13:01:11.883Z,13.59
2016-04-02T13:02:13.402Z,13.3
2016-04-02T13:03:11.889Z,13.3
2016-04-02T13:04:11.908Z,13.4
2016-04-02T13:05:11.911Z,13.59
2016-04-02T13:06:12.475Z,13.01
2016-04-02T13:07:12.291Z,13.3
2016-04-02T13:08:11.886Z,13.59
2016-04-02T13:09:11.889Z,13.11
2016-04-02T13:10:12.674Z,13.49